Accueil
METAR-TAF:

METAR-TAF

Aéroports :

Cazaux, France

Base aérienne 120 Cazaux

latitude: 44-32N, longitude: 001-08W, altitude: 25 m

Observation

Le bulletin a été fait il y a 29 minutes, à 22:00 UTC
Vent 5 kt de nord
Température 6°C
Humidité 75%
Pression 1021 hPa
Visibilité 10 km ou plus
pas de nuages en-dessous de 1500 mètres et pas de cumulonimbus.

METAR: LFBC 272200Z AUTO 35005KT CAVOK 06/02 Q1021 NOSIG

Heure: 00:29 (22:29 UTC)

Prévision

Le bulletin a été fait il y a 2 heures et 29 minutes, à 20:00 UTC
Prévision valable du 27 à 21 UTC au 28 à 21 UTC
Vent 5 kt de nord
Visibilité 10 km ou plus
pas de nuages en-dessous de 1500 mètres et pas de cumulonimbus.
Probabilité 30% :
Temporairement
du 28 à 03 UTC au 28 à 06 UTC
Visibilité: 4000 m
Brouillard mince

TAF: LFBC 272000Z 2721/2821 35005KT CAVOK PROB30 TEMPO 2803/2806 4000 MIFG

Observations et prévisions météorologiques de plus de 4000 aéroports (messages METAR et TAF).

Les stations disponibles sont représentées par des disques jaunes et rouges sur la carte.

Passer la souris dessus pour voir le nom de la station.

Cliquer dessus pour voir les observations et prévisions météorologiques.

Pour changer de carte: cliquez sur les boutons verts avec une croix noire pour zoomer, sur le bouton vert avec un tiret pour effectuer un zoom arrière, ou sur les flèches vertes pour les cartes adjacentes.


METAR-TAF: